Time;durP1;ratioP1;P1;durP2;ratioP2;P2;SDS_P1;SDS_P2;PMS_P1;PMS_P2;Temp;Humidity;BMP_temperature;BMP_pressure;BME280_temperature;BME280_humidity;BME280_pressure;Samples;Min_cycle;Max_cycle;Signal;HPM_P1;HPM_P2
2023/02/11 00:00:42;;;;;;;47.83;32.60;;;;;;;-1.82;100.00;103554.84;2071924;28;20199;-60
2023/02/11 00:01:43;;;;;;;43.10;29.67;;;;;;;-1.90;100.00;103533.66;2072020;28;20193;-60
2023/02/11 00:02:43;;;;;;;59.10;39.07;;;;;;;-1.76;100.00;103544.78;2072072;28;20286;-60
2023/02/11 00:03:44;;;;;;;55.17;36.73;;;;;;;-1.75;100.00;103549.09;2071976;28;20406;-60
2023/02/11 00:04:44;;;;;;;55.90;38.37;;;;;;;-1.76;100.00;103550.22;2071327;28;20205;-60
2023/02/11 00:05:44;;;;;;;40.80;26.43;;;;;;;-2.24;100.00;103475.66;2071606;28;20183;-60
2023/02/11 00:06:45;;;;;;;55.10;33.03;;;;;;;-1.72;100.00;103546.63;2072372;28;20178;-60
2023/02/11 00:07:45;;;;;;;43.97;30.43;;;;;;;-1.73;100.00;103553.97;2072102;28;20277;-60
2023/02/11 00:08:46;;;;;;;55.77;36.37;;;;;;;-1.73;100.00;103546.91;2066488;28;20250;-60
2023/02/11 00:09:46;;;;;;;38.20;26.93;;;;;;;-1.73;100.00;103545.81;2069831;28;20245;-60
2023/02/11 00:10:51;;;;;;;52.23;35.97;;;;;;;-1.70;100.00;103552.59;2068560;28;20280;-60
2023/02/11 00:11:52;;;;;;;54.35;36.33;;;;;;;-2.03;100.00;103484.53;2068466;28;20178;-60
2023/02/11 00:12:52;;;;;;;34.57;22.20;;;;;;;-1.73;100.00;103548.53;2071755;28;20200;-60
2023/02/11 00:13:53;;;;;;;54.63;37.83;;;;;;;-1.65;100.00;103549.06;2071727;28;20196;-60
2023/02/11 00:14:53;;;;;;;53.63;35.93;;;;;;;-1.90;100.00;103503.75;2071151;28;20193;-60
2023/02/11 00:15:54;;;;;;;52.00;36.03;;;;;;;-1.83;100.00;103510.53;2062832;28;20665;-60
2023/02/11 00:16:55;;;;;;;56.33;37.73;;;;;;;-1.60;100.00;103547.09;2070052;28;20280;-60
2023/02/11 00:17:55;;;;;;;52.23;36.33;;;;;;;-1.58;100.00;103539.50;2065740;28;20219;-60
2023/02/11 00:18:57;;;;;;;58.10;38.10;;;;;;;-1.55;100.00;103543.56;2070701;28;20189;-60
2023/02/11 00:19:58;;;;;;;53.55;37.40;;;;;;;-2.16;100.00;103438.97;2068340;28;20195;-60
2023/02/11 00:20:58;;;;;;;56.93;37.73;;;;;;;-1.62;100.00;103536.50;2066689;28;20338;-60
2023/02/11 00:21:58;;;;;;;36.27;24.37;;;;;;;-1.57;100.00;103536.47;2070519;28;20182;-60
2023/02/11 00:22:59;;;;;;;32.70;21.23;;;;;;;-1.54;100.00;103539.75;2066546;28;20182;-60
2023/02/11 00:24:01;;;;;;;28.17;20.30;;;;;;;-1.50;100.00;103546.25;2072286;28;20188;-60
2023/02/11 00:25:01;;;;;;;33.10;21.83;;;;;;;-1.63;100.00;103520.50;2063719;28;20247;-60
2023/02/11 00:26:03;;;;;;;32.90;22.43;;;;;;;-1.74;100.00;103491.75;2069685;28;20271;-60
2023/02/11 00:27:03;;;;;;;30.48;21.33;;;;;;;-1.39;100.00;103545.91;2071946;28;20197;-59
2023/02/11 00:28:04;;;;;;;31.50;21.53;;;;;;;-1.43;100.00;103542.13;2071709;28;20195;-60
2023/02/11 00:29:04;;;;;;;32.97;21.23;;;;;;;-1.40;100.00;103547.00;2072113;28;20200;-60
2023/02/11 00:30:05;;;;;;;30.83;21.93;;;;;;;-1.87;100.00;103465.16;2072341;28;20656;-60
2023/02/11 00:31:06;;;;;;;31.30;21.33;;;;;;;-1.49;100.00;103542.44;2071760;28;20179;-60
2023/02/11 00:32:07;;;;;;;31.97;22.70;;;;;;;-1.54;100.00;103537.81;2071637;28;20186;-60
2023/02/11 00:33:08;;;;;;;37.55;24.08;;;;;;;-1.52;100.00;103535.66;2063787;28;20194;-60
2023/02/11 00:34:08;;;;;;;31.43;22.53;;;;;;;-1.45;100.00;103529.91;2071397;28;20675;-60
2023/02/11 00:35:09;;;;;;;31.90;22.70;;;;;;;-1.48;100.00;103534.81;2073006;28;20666;-60
2023/02/11 00:36:14;;;;;;;34.40;24.17;;;;;;;-1.49;100.00;103529.63;2073288;28;20202;-60
2023/02/11 00:37:15;;;;;;;29.60;20.17;;;;;;;-1.52;100.00;103535.66;2073149;28;20197;-60
2023/02/11 00:38:15;;;;;;;33.90;21.85;;;;;;;-1.64;100.00;103543.31;2073696;28;20660;-60
2023/02/11 00:39:16;;;;;;;30.17;20.43;;;;;;;-1.61;100.00;103529.19;2073371;28;20179;-60
2023/02/11 00:40:16;;;;;;;30.80;21.17;;;;;;;-1.91;100.00;103501.34;2073582;28;20273;-60
2023/02/11 00:41:18;;;;;;;26.93;18.97;;;;;;;-1.93;100.00;103496.19;2073284;28;20189;-60
2023/02/11 00:42:18;;;;;;;26.55;18.90;;;;;;;-1.59;100.00;103543.28;2072362;28;20315;-60
2023/02/11 00:43:19;;;;;;;25.97;17.90;;;;;;;-1.65;100.00;103540.91;2073450;28;20207;-60
2023/02/11 00:44:20;;;;;;;27.07;17.37;;;;;;;-1.75;100.00;103513.75;2073673;28;20273;-60
2023/02/11 00:45:20;;;;;;;28.00;16.63;;;;;;;-1.68;100.00;103544.16;2072238;28;20194;-60
2023/02/11 00:46:21;;;;;;;23.77;14.93;;;;;;;-1.73;100.00;103534.94;2069977;28;20194;-59
2023/02/11 00:47:22;;;;;;;22.25;15.77;;;;;;;-1.73;100.00;103534.94;2071994;28;20190;-60
2023/02/11 00:48:22;;;;;;;23.60;15.40;;;;;;;-1.79;100.00;103535.25;2072328;28;20186;-60
2023/02/11 00:49:24;;;;;;;22.13;15.73;;;;;;;-1.72;100.00;103535.75;2065703;28;20292;-60
2023/02/11 00:50:24;;;;;;;23.52;15.70;;;;;;;-1.85;100.00;103520.03;2073484;28;20192;-60
2023/02/11 00:51:27;;;;;;;21.17;14.57;;;;;;;-1.71;100.00;103540.09;2065837;28;20232;-60
2023/02/11 00:52:27;;;;;;;22.40;14.98;;;;;;;-1.69;100.00;103548.00;2072597;28;20217;-60
2023/02/11 00:53:27;;;;;;;23.23;15.53;;;;;;;-2.17;100.00;103467.22;2066792;28;20217;-60
2023/02/11 00:54:28;;;;;;;20.93;14.50;;;;;;;-1.67;100.00;103545.78;2068432;28;20196;-60
2023/02/11 00:55:28;;;;;;;24.53;16.30;;;;;;;-1.71;100.00;103553.69;2069591;28;20723;-60
2023/02/11 00:56:29;;;;;;;22.50;15.10;;;;;;;-1.72;100.00;103543.91;2067404;28;20183;-60
2023/02/11 00:57:29;;;;;;;23.33;15.10;;;;;;;-2.42;100.00;103427.38;2072338;28;20740;-60
2023/02/11 00:58:30;;;;;;;21.77;14.90;;;;;;;-1.87;100.00;103535.84;2072096;28;20191;-60
2023/02/11 00:59:30;;;;;;;20.90;14.93;;;;;;;-1.87;100.00;103549.44;2073001;28;20672;-60
2023/02/11 01:00:31;;;;;;;22.17;14.70;;;;;;;-1.83;100.00;103543.16;2073466;28;20416;-60
2023/02/11 01:01:31;;;;;;;22.33;15.63;;;;;;;-1.79;100.00;103537.16;2073478;28;20786;-60
2023/02/11 01:02:32;;;;;;;22.13;14.13;;;;;;;-1.76;100.00;103537.41;2073494;28;20196;-60
2023/02/11 01:03:33;;;;;;;19.67;13.70;;;;;;;-1.97;100.00;103511.41;2072399;28;20202;-60
2023/02/11 01:04:33;;;;;;;22.13;14.57;;;;;;;-1.75;100.00;103535.50;2073100;28;20260;-60
2023/02/11 01:05:34;;;;;;;19.23;13.70;;;;;;;-2.27;100.00;103456.41;2072852;28;20773;-60
2023/02/11 01:06:34;;;;;;;18.87;13.40;;;;;;;-1.79;100.00;103535.25;2073445;28;20210;-60
2023/02/11 01:07:35;;;;;;;22.30;14.77;;;;;;;-1.61;100.00;103529.19;2073516;28;20198;-60
2023/02/11 01:08:36;;;;;;;20.93;14.27;;;;;;;-1.62;100.00;103539.22;2073208;28;20215;-60
2023/02/11 01:09:37;;;;;;;18.70;13.33;;;;;;;-1.68;100.00;103534.13;2073455;28;20288;-60
2023/02/11 01:10:38;;;;;;;20.90;13.98;;;;;;;-1.62;100.00;103541.16;2072874;28;20448;-60
2023/02/11 01:11:38;;;;;;;21.73;14.07;;;;;;;-2.19;100.00;103423.22;2072560;28;20684;-60
2023/02/11 01:12:39;;;;;;;18.87;12.70;;;;;;;-1.79;100.00;103504.53;2072619;28;20225;-60
2023/02/11 01:13:40;;;;;;;19.33;13.50;;;;;;;-1.65;100.00;103530.81;2072337;28;20182;-60
2023/02/11 01:14:41;;;;;;;21.08;13.70;;;;;;;-1.62;100.00;103527.56;2072431;28;20186;-60
2023/02/11 01:15:41;;;;;;;20.87;14.17;;;;;;;-1.54;100.00;103528.88;2064673;28;20215;-60
2023/02/11 01:16:42;;;;;;;20.70;14.33;;;;;;;-1.54;100.00;103524.22;2073263;28;20597;-60
2023/02/11 01:17:42;;;;;;;19.40;13.43;;;;;;;-1.47;100.00;103525.53;2072686;28;20196;-60
2023/02/11 01:18:43;;;;;;;21.43;14.13;;;;;;;-1.65;100.00;103495.47;2073654;28;20223;-60
2023/02/11 01:19:43;;;;;;;19.87;13.10;;;;;;;-1.47;100.00;103522.03;2072562;28;20191;-60
2023/02/11 01:20:44;;;;;;;21.70;13.67;;;;;;;-1.55;100.00;103503.56;2072665;28;20263;-60
2023/02/11 01:21:44;;;;;;;21.40;14.17;;;;;;;-1.51;100.00;103504.63;2072613;28;20186;-60
2023/02/11 01:22:45;;;;;;;23.43;13.53;;;;;;;-1.57;100.00;103517.44;2072980;28;20198;-60
2023/02/11 01:23:45;;;;;;;21.37;13.73;;;;;;;-1.58;100.00;103522.38;2073418;28;20193;-60
2023/02/11 01:24:46;;;;;;;18.80;13.40;;;;;;;-1.71;100.00;103479.50;2064877;28;20228;-60
2023/02/11 01:25:47;;;;;;;20.23;13.47;;;;;;;-1.52;100.00;103519.34;2071654;28;20187;-60
2023/02/11 01:26:47;;;;;;;22.10;13.97;;;;;;;-1.48;100.00;103518.47;2072973;28;20191;-60
2023/02/11 01:27:47;;;;;;;21.50;13.33;;;;;;;-2.04;100.00;103420.41;2073117;28;20215;-60
2023/02/11 01:28:48;;;;;;;22.27;13.60;;;;;;;-1.38;100.00;103514.06;2073270;28;20190;-60
2023/02/11 01:29:48;;;;;;;18.87;13.50;;;;;;;-1.33;100.00;103500.44;2073254;28;20210;-60
2023/02/11 01:30:49;;;;;;;22.07;14.43;;;;;;;-1.29;100.00;103506.94;2072807;28;20683;-59
2023/02/11 01:31:50;;;;;;;23.85;14.15;;;;;;;-1.21;100.00;103507.16;2073130;28;20174;-60
2023/02/11 01:32:50;;;;;;;20.17;13.67;;;;;;;-1.19;100.00;103506.88;2072957;28;20221;-60
2023/02/11 01:33:51;;;;;;;20.23;13.27;;;;;;;-1.19;100.00;103504.16;2066021;28;20188;-60
2023/02/11 01:34:51;;;;;;;20.50;14.00;;;;;;;-1.22;100.00;103497.38;2070888;28;20652;-60
2023/02/11 01:35:51;;;;;;;21.57;14.20;;;;;;;-1.17;100.00;103498.13;2071896;28;20190;-60
2023/02/11 01:36:57;;;;;;;22.90;14.70;;;;;;;-2.13;100.00;103337.84;2073394;28;20294;-59
2023/02/11 01:37:58;;;;;;;20.67;14.45;;;;;;;-1.11;100.00;103493.47;2065246;28;20653;-60
2023/02/11 01:38:58;;;;;;;20.03;13.87;;;;;;;-1.06;100.00;103496.94;2067369;28;20570;-60
2023/02/11 01:40:01;;;;;;;19.63;14.37;;;;;;;-0.98;100.00;103497.44;2072586;28;20191;-60
2023/02/11 01:41:08;;;;;;;20.30;14.43;;;;;;;-0.94;100.00;103503.94;2073091;28;20175;-60
2023/02/11 01:42:16;;;;;;;21.73;14.40;;;;;;;-0.93;100.00;103490.03;2072980;28;20175;-60
2023/02/11 01:43:17;;;;;;;25.30;15.73;;;;;;;-0.89;100.00;103498.47;2064809;28;20638;-60
2023/02/11 01:44:22;;;;;;;24.05;15.93;;;;;;;-1.77;100.00;103342.75;2065630;28;20187;-60
2023/02/11 01:45:44;;;;;;;26.05;16.30;;;;;;;-0.84;100.00;103477.44;2064147;28;20203;-60
2023/02/11 01:46:45;;;;;;;23.00;15.98;;;;;;;-0.81;100.00;103480.38;2069933;28;20253;-60
2023/02/11 01:47:45;;;;;;;22.37;15.67;;;;;;;-0.77;100.00;103483.34;2073190;28;20192;-60
2023/02/11 01:48:57;;;;;;;23.40;15.77;;;;;;;-0.73;100.00;103482.50;2073378;28;20572;-60
2023/02/11 01:50:00;;;;;;;21.27;14.05;;;;;;;-0.70;100.00;103484.63;2073256;28;20200;-60
2023/02/11 01:51:11;;;;;;;19.52;13.82;;;;;;;-0.73;100.00;103470.00;2073016;28;20198;-60
2023/02/11 01:52:13;;;;;;;18.15;12.38;;;;;;;-0.66;100.00;103480.22;2073115;28;20209;-60
2023/02/11 01:57:27;;;;;;;18.75;12.55;;;;;;;-0.56;100.00;103477.41;2072611;28;20242;-60
2023/02/11 01:58:33;;;;;;;18.52;12.88;;;;;;;-0.61;100.00;103469.28;2072682;28;20616;-60
2023/02/11 02:00:02;;;;;;;18.48;13.30;;;;;;;-1.23;100.00;103383.38;2071213;28;20175;-60
2023/02/11 02:02:59;;;;;;;19.02;12.15;;;;;;;-0.57;100.00;103472.25;2072875;28;20197;-60
2023/02/11 02:04:01;;;;;;;18.92;12.98;;;;;;;-0.52;100.00;103486.63;2065748;28;20203;-60
2023/02/11 02:05:28;;;;;;;19.83;13.57;;;;;;;-0.48;100.00;103475.97;2064564;28;20179;-60
2023/02/11 02:06:34;;;;;;;19.45;12.77;;;;;;;-0.60;100.00;103472.84;2064794;28;20764;-60
2023/02/11 02:07:43;;;;;;;18.83;12.55;;;;;;;-0.52;100.00;103474.13;2069635;28;20199;-60
2023/02/11 02:09:00;;;;;;;23.05;14.25;;;;;;;-0.50;100.00;103486.34;2071503;28;20177;-59
2023/02/11 02:10:06;;;;;;;18.10;12.30;;;;;;;-0.77;100.00;103445.22;2068387;28;20206;-60
2023/02/11 02:11:07;;;;;;;18.75;12.82;;;;;;;-0.51;100.00;103468.38;2070562;28;20622;-60
2023/02/11 02:12:08;;;;;;;21.83;12.70;;;;;;;-0.47;100.00;103493.94;2069988;28;20570;-60
2023/02/11 02:13:09;;;;;;;18.63;12.17;;;;;;;-0.48;100.00;103475.97;2064302;28;20299;-60
2023/02/11 02:14:09;;;;;;;18.38;12.50;;;;;;;-0.47;100.00;103472.94;2065095;28;20663;-60
2023/02/11 02:15:34;;;;;;;18.93;12.10;;;;;;;-0.85;100.00;103408.53;2071292;28;20617;-60
2023/02/11 02:16:36;;;;;;;19.63;12.70;;;;;;;-0.56;100.00;103471.16;2069168;28;20191;-60
2023/02/11 02:17:49;;;;;;;19.58;13.07;;;;;;;-0.52;100.00;103473.00;2072808;28;20653;-60
2023/02/11 02:18:58;;;;;;;16.92;12.15;;;;;;;-0.50;100.00;103468.06;2065073;28;20175;-60
2023/02/11 02:20:26;;;;;;;19.42;12.90;;;;;;;-0.41;99.63;103470.97;2065224;28;20188;-60
2023/02/11 02:22:00;;;;;;;18.65;12.32;;;;;;;-0.46;99.30;103480.03;2071620;28;20195;-60
2023/02/11 02:23:27;;;;;;;18.70;12.00;;;;;;;-0.43;98.92;103471.28;2066819;28;20201;-60
2023/02/11 02:24:59;;;;;;;18.33;11.80;;;;;;;-0.60;99.00;103468.19;2064548;28;20177;-60
2023/02/11 02:26:28;;;;;;;18.35;12.60;;;;;;;-0.63;99.80;103474.22;2071332;28;20186;-60
2023/02/11 02:27:45;;;;;;;18.90;11.88;;;;;;;-0.61;100.00;103473.94;2072652;28;20199;-60
2023/02/11 02:28:54;;;;;;;18.73;12.30;;;;;;;-0.60;100.00;103481.78;2067266;28;20205;-60
2023/02/11 02:30:30;;;;;;;17.50;12.23;;;;;;;-0.55;100.00;103472.78;2070122;28;20188;-60
2023/02/11 02:31:53;;;;;;;17.95;12.10;;;;;;;-0.55;100.00;103473.56;2064558;28;20213;-60
2023/02/11 02:33:18;;;;;;;17.35;11.80;;;;;;;-0.48;100.00;103477.88;2067031;28;20631;-60
2023/02/11 02:34:29;;;;;;;17.20;12.35;;;;;;;-0.58;100.00;103462.44;2068675;28;20634;-60
2023/02/11 02:35:59;;;;;;;19.27;12.15;;;;;;;-0.49;100.00;103466.16;2067574;28;20192;-60
2023/02/11 02:37:11;;;;;;;17.08;11.85;;;;;;;-0.43;100.00;103474.00;2072229;28;20196;-60
2023/02/11 02:38:32;;;;;;;19.15;12.73;;;;;;;-0.54;100.00;103468.94;2072936;28;20203;-60
2023/02/11 02:39:35;;;;;;;18.27;12.90;;;;;;;-0.60;99.96;103470.91;2070652;28;20176;-60
2023/02/11 02:40:50;;;;;;;20.48;13.50;;;;;;;-0.61;100.00;103473.94;2064141;28;20203;-60
2023/02/11 02:41:52;;;;;;;18.33;13.23;;;;;;;-1.09;100.00;103387.03;2064058;28;20168;-60
2023/02/11 02:42:54;;;;;;;19.67;13.55;;;;;;;-0.65;100.00;103470.16;2069058;28;20189;-60
2023/02/11 02:43:55;;;;;;;19.50;13.05;;;;;;;-0.65;100.00;103468.22;2070292;28;20203;-59
2023/02/11 02:44:55;;;;;;;18.10;12.93;;;;;;;-1.33;100.00;103353.53;2072153;28;20205;-60
2023/02/11 02:46:12;;;;;;;20.13;15.37;;;;;;;-0.73;100.00;103463.44;2072129;28;20223;-60
2023/02/11 02:47:13;;;;;;;21.67;14.52;;;;;;;-0.86;100.00;103436.88;2079242;28;20190;-59
2023/02/11 02:48:31;;;;;;;22.90;15.77;;;;;;;-0.73;100.00;103465.34;2072509;28;20215;-60
2023/02/11 02:49:32;;;;;;;23.42;15.43;;;;;;;-0.74;100.00;103469.16;2079012;28;20195;-60
2023/02/11 02:50:35;;;;;;;25.17;17.33;;;;;;;-0.73;100.00;103465.34;2069616;28;20205;-60
2023/02/11 02:51:53;;;;;;;23.20;16.92;;;;;;;-0.73;100.00;103466.16;2074312;28;20553;-60
2023/02/11 02:53:28;;;;;;;25.85;16.35;;;;;;;-0.73;100.00;103470.78;2073027;28;20720;-60
2023/02/11 02:54:39;;;;;;;24.10;16.10;;;;;;;-0.73;100.00;103464.53;2062514;28;20203;-60
2023/02/11 02:56:19;;;;;;;23.55;15.73;;;;;;;-0.70;100.00;103465.56;2065118;28;20628;-60
2023/02/11 02:57:38;;;;;;;22.70;13.75;;;;;;;-0.70;100.00;103464.78;2074616;28;20240;-60
2023/02/11 02:59:02;;;;;;;21.85;14.45;;;;;;;-0.74;100.00;103458.28;2077511;28;20261;-60
2023/02/11 03:00:42;;;;;;;18.23;13.05;;;;;;;-0.73;100.00;103471.59;2064685;28;20181;-60
2023/02/11 03:02:10;;;;;;;19.02;12.60;;;;;;;-0.77;100.00;103464.28;2067039;28;21006;-60
2023/02/11 03:03:22;;;;;;;21.63;12.70;;;;;;;-0.78;100.00;103464.59;2072192;28;20280;-59
2023/02/11 03:04:53;;;;;;;19.33;13.43;;;;;;;-0.79;100.00;103471.94;2072309;28;20723;-60
2023/02/11 03:06:06;;;;;;;20.00;12.95;;;;;;;-0.81;100.00;103464.03;2072276;28;20207;-60
2023/02/11 03:07:51;;;;;;;19.02;13.27;;;;;;;-0.83;100.00;103453.75;2072991;28;20359;-60
2023/02/11 03:09:01;;;;;;;22.48;13.15;;;;;;;-1.30;100.00;103385.63;2067323;28;20196;-60
2023/02/11 03:10:12;;;;;;;21.95;14.05;;;;;;;-0.82;100.00;103463.53;2075662;28;20214;-59
2023/02/11 03:11:17;;;;;;;20.67;14.20;;;;;;;-0.80;100.00;103457.50;2073529;28;20260;-60
2023/02/11 03:12:19;;;;;;;19.05;13.32;;;;;;;-0.76;100.00;103476.81;2077959;28;20190;-59
2023/02/11 03:13:25;;;;;;;20.77;13.25;;;;;;;-0.77;100.00;103465.09;2072587;28;20199;-60
2023/02/11 03:14:28;;;;;;;20.70;14.02;;;;;;;-0.97;100.00;103429.91;2070884;28;20184;-60
2023/02/11 03:15:33;;;;;;;19.75;13.55;;;;;;;-1.68;100.00;103313.06;2067199;28;20208;-60
2023/02/11 03:16:37;;;;;;;19.45;14.10;;;;;;;-0.71;100.00;103457.72;2066464;28;20216;-60
2023/02/11 03:17:41;;;;;;;19.52;13.27;;;;;;;-0.77;100.00;103461.56;2070872;28;20180;-60
2023/02/11 03:18:48;;;;;;;20.75;13.95;;;;;;;-0.80;100.00;103457.50;2072656;28;20192;-60
2023/02/11 03:19:50;;;;;;;21.95;14.18;;;;;;;-0.87;100.00;103459.75;2070682;28;20194;-60
2023/02/11 03:20:53;;;;;;;19.80;13.55;;;;;;;-0.82;100.00;103476.03;2064863;28;20188;-60
2023/02/11 03:21:54;;;;;;;22.98;15.07;;;;;;;-0.82;100.00;103458.88;2067893;28;20184;-60
2023/02/11 03:23:03;;;;;;;20.85;14.48;;;;;;;-0.86;100.00;103455.94;2065902;28;20202;-60
2023/02/11 03:24:11;;;;;;;19.45;13.95;;;;;;;-0.93;100.00;103462.00;2072392;28;20667;-60
2023/02/11 03:25:12;;;;;;;21.35;14.90;;;;;;;-0.99;100.00;103460.44;2070173;28;20237;-60
2023/02/11 03:26:12;;;;;;;20.20;14.10;;;;;;;-1.01;100.00;103460.72;2071761;28;20221;-60
2023/02/11 03:27:40;;;;;;;23.00;14.97;;;;;;;-1.02;100.00;103465.34;2064297;28;20213;-60
2023/02/11 03:28:43;;;;;;;24.92;14.88;;;;;;;-1.03;100.00;103465.63;2072094;28;20240;-60
2023/02/11 03:30:05;;;;;;;23.52;16.00;;;;;;;-1.03;100.00;103464.81;2065257;28;20262;-60
2023/02/11 03:31:44;;;;;;;27.50;18.92;;;;;;;-1.02;100.00;103461.00;2064264;28;20250;-60
2023/02/11 03:32:51;;;;;;;35.45;22.60;;;;;;;-1.73;100.00;103348.44;2069774;28;20653;-60
2023/02/11 03:34:08;;;;;;;36.67;23.33;;;;;;;-1.23;100.00;103445.94;2067402;28;20211;-60
2023/02/11 03:35:27;;;;;;;34.45;22.23;;;;;;;-1.08;100.00;103456.69;2067378;28;20838;-60
2023/02/11 03:36:48;;;;;;;38.05;23.35;;;;;;;-1.13;100.00;103455.66;2066591;28;20677;-60
2023/02/11 03:37:53;;;;;;;30.63;18.83;;;;;;;-1.06;100.00;103450.66;2070844;28;20590;-60
2023/02/11 03:38:57;;;;;;;32.40;19.15;;;;;;;-1.03;100.00;103446.56;2065420;28;20794;-59
2023/02/11 03:40:07;;;;;;;27.40;17.77;;;;;;;-1.03;100.00;103451.22;2070548;28;20192;-60
2023/02/11 03:41:09;;;;;;;26.17;17.65;;;;;;;-1.12;100.00;103454.53;2072256;28;20294;-60
2023/02/11 03:42:12;;;;;;;28.23;17.70;;;;;;;-1.26;100.00;103436.44;2072362;28;20202;-60
2023/02/11 03:43:29;;;;;;;31.08;19.35;;;;;;;-1.05;100.00;103451.50;2071254;28;20190;-60
2023/02/11 03:44:36;;;;;;;26.00;17.38;;;;;;;-1.08;100.00;103448.53;2071854;28;20196;-60
2023/02/11 03:45:37;;;;;;;25.88;16.40;;;;;;;-1.17;100.00;103451.06;2071758;28;20730;-60
2023/02/11 03:46:43;;;;;;;25.45;16.63;;;;;;;-1.22;100.00;103453.84;2071658;28;20227;-59
2023/02/11 03:47:49;;;;;;;27.38;17.40;;;;;;;-1.43;100.00;103435.22;2071259;28;20245;-60
2023/02/11 03:48:57;;;;;;;25.75;17.58;;;;;;;-1.33;100.00;103455.03;2068096;28;20191;-59
2023/02/11 03:50:01;;;;;;;28.15;17.80;;;;;;;-1.32;100.00;103456.63;2072310;28;20198;-60
2023/02/11 03:51:04;;;;;;;25.98;18.35;;;;;;;-1.29;100.00;103458.75;2072115;28;20198;-59
2023/02/11 03:52:10;;;;;;;25.17;17.63;;;;;;;-1.38;100.00;103446.06;2071772;28;20713;-60
2023/02/11 03:53:12;;;;;;;29.13;17.65;;;;;;;-1.47;100.00;103446.66;2071782;28;20736;-60
2023/02/11 03:54:17;;;;;;;22.60;16.35;;;;;;;-2.32;100.00;103307.03;2072318;28;20190;-60
2023/02/11 03:55:22;;;;;;;35.33;25.23;;;;;;;-1.77;100.00;103378.09;2071057;28;20180;-60
2023/02/11 03:56:27;;;;;;;22.50;15.82;;;;;;;-2.01;100.00;103316.59;2072044;28;20198;-60
2023/02/11 03:57:28;;;;;;;38.80;30.77;;;;;;;-1.48;100.00;103403.44;2056118;28;20213;-60
2023/02/11 03:58:29;;;;;;;25.50;17.33;;;;;;;-1.26;100.00;103437.25;2061343;28;20259;-60
2023/02/11 03:59:29;;;;;;;22.70;15.50;;;;;;;-1.30;100.00;103438.09;2064081;28;20739;-60
2023/02/11 04:00:32;;;;;;;25.57;16.57;;;;;;;-1.25;100.00;103438.06;2063832;28;20271;-60
2023/02/11 04:01:32;;;;;;;22.02;14.88;;;;;;;-1.19;100.00;103430.69;2063848;28;20270;-60
2023/02/11 04:02:34;;;;;;;19.50;13.10;;;;;;;-1.13;99.52;103440.41;2061106;28;20196;-60
2023/02/11 04:03:35;;;;;;;21.90;13.95;;;;;;;-1.19;99.07;103428.75;2061588;28;20642;-60
2023/02/11 04:04:36;;;;;;;24.33;14.40;;;;;;;-1.18;100.00;103430.38;2062406;28;20597;-60
2023/02/11 04:05:37;;;;;;;20.13;13.80;;;;;;;-1.32;98.46;103413.09;2060911;28;20193;-60
2023/02/11 04:06:38;;;;;;;21.38;14.13;;;;;;;-1.21;98.21;103434.47;2064509;28;20230;-60
2023/02/11 04:07:38;;;;;;;28.40;14.33;;;;;;;-1.23;98.00;103433.97;2064065;28;20242;-60
2023/02/11 04:08:39;;;;;;;23.60;13.90;;;;;;;-1.24;97.46;103442.41;2064271;28;20277;-60
2023/02/11 04:09:39;;;;;;;20.93;14.57;;;;;;;-1.29;98.03;103441.66;2064499;28;20194;-60
2023/02/11 04:10:40;;;;;;;19.60;13.73;;;;;;;-1.95;97.74;103345.34;2065880;28;20200;-59
2023/02/11 04:11:40;;;;;;;25.40;14.77;;;;;;;-1.97;98.48;103348.34;2065537;28;20885;-60
2023/02/11 04:12:40;;;;;;;20.00;13.47;;;;;;;-1.43;99.15;103438.78;2065461;28;20286;-60
2023/02/11 04:13:41;;;;;;;20.43;13.43;;;;;;;-1.67;99.25;103390.81;2065538;28;20184;-60
2023/02/11 04:14:41;;;;;;;21.70;14.03;;;;;;;-1.29;99.34;103437.00;2065097;28;20570;-60
2023/02/11 04:15:42;;;;;;;20.80;13.30;;;;;;;-1.31;98.98;103431.03;2064964;28;20690;-60
2023/02/11 04:16:42;;;;;;;20.87;14.03;;;;;;;-1.22;99.22;103432.84;2065950;28;20614;-60
2023/02/11 04:17:43;;;;;;;21.30;14.17;;;;;;;-1.69;99.07;103344.84;2065613;28;20197;-60
2023/02/11 04:18:43;;;;;;;20.03;14.17;;;;;;;-1.09;98.58;103434.09;2065245;28;20202;-59
2023/02/11 04:19:43;;;;;;;19.10;13.50;;;;;;;-1.18;98.36;103432.31;2062843;28;20585;-60
2023/02/11 04:20:44;;;;;;;21.00;13.53;;;;;;;-1.23;98.26;103432.34;2059508;28;20180;-60
2023/02/11 04:21:46;;;;;;;20.50;13.93;;;;;;;-1.32;98.63;103434.88;2064965;28;20183;-60
2023/02/11 04:22:46;;;;;;;20.15;13.75;;;;;;;-1.46;98.73;103417.56;2057569;28;20184;-60
2023/02/11 04:23:47;;;;;;;20.53;14.13;;;;;;;-1.39;98.89;103422.69;2064747;28;20287;-60
2023/02/11 04:24:47;;;;;;;21.07;13.20;;;;;;;-1.52;98.92;103413.28;2058822;28;20266;-60
2023/02/11 04:25:48;;;;;;;19.10;13.97;;;;;;;-1.33;99.65;103429.72;2062484;28;20188;-60
2023/02/11 04:26:49;;;;;;;18.77;12.88;;;;;;;-1.68;99.06;103372.88;2065812;28;20195;-60
2023/02/11 04:27:49;;;;;;;18.93;13.10;;;;;;;-1.34;98.89;103428.09;2064347;28;20210;-60
2023/02/11 04:28:49;;;;;;;19.80;13.30;;;;;;;-1.39;98.90;103426.19;2065048;28;20176;-60
2023/02/11 04:29:50;;;;;;;19.83;13.50;;;;;;;-1.84;99.21;103366.75;2065636;28;20266;-60
2023/02/11 04:30:50;;;;;;;20.27;13.20;;;;;;;-1.74;99.19;103354.97;2065968;28;20176;-60
2023/02/11 04:31:51;;;;;;;19.37;12.83;;;;;;;-1.33;98.89;103422.38;2065674;28;20192;-59
2023/02/11 04:32:53;;;;;;;19.87;13.43;;;;;;;-1.40;99.63;103424.59;2064725;28;20246;-60
2023/02/11 04:33:53;;;;;;;20.30;13.20;;;;;;;-1.93;100.00;103364.91;2059506;28;20218;-60
2023/02/11 04:34:54;;;;;;;21.00;13.43;;;;;;;-1.67;100.00;103426.97;2061923;28;20207;-60
2023/02/11 04:35:54;;;;;;;19.63;13.17;;;;;;;-1.63;100.00;103425.31;2061237;28;20218;-60
2023/02/11 04:36:55;;;;;;;19.83;13.37;;;;;;;-1.60;100.00;103424.75;2059738;28;20897;-60
2023/02/11 04:37:55;;;;;;;19.20;12.90;;;;;;;-1.61;100.00;103423.13;2064205;28;20184;-60
2023/02/11 04:38:56;;;;;;;19.40;13.07;;;;;;;-1.50;100.00;103430.09;2064110;28;20250;-60
2023/02/11 04:39:56;;;;;;;18.27;12.93;;;;;;;-1.51;100.00;103420.31;2065637;28;20606;-60
2023/02/11 04:40:59;;;;;;;19.20;13.70;;;;;;;-1.54;100.00;103425.53;2058263;28;20225;-60
2023/02/11 04:41:59;;;;;;;20.52;13.38;;;;;;;-1.54;100.00;103422.81;2064140;28;20193;-60
2023/02/11 04:43:00;;;;;;;21.43;13.33;;;;;;;-1.62;100.00;103418.78;2063933;28;20191;-60
2023/02/11 04:44:00;;;;;;;21.43;13.70;;;;;;;-1.68;100.00;103416.38;2065498;28;20202;-60
2023/02/11 04:45:01;;;;;;;19.97;14.07;;;;;;;-1.77;100.00;103412.63;2064579;28;20227;-60
2023/02/11 04:46:01;;;;;;;22.27;14.50;;;;;;;-1.78;100.00;103414.56;2062508;28;20187;-60
2023/02/11 04:47:02;;;;;;;22.33;13.83;;;;;;;-1.79;100.00;103407.50;2065557;28;20191;-60
2023/02/11 04:48:02;;;;;;;20.00;12.90;;;;;;;-2.85;100.00;103246.25;2062965;28;20180;-60
2023/02/11 04:49:03;;;;;;;19.83;13.73;;;;;;;-1.89;100.00;103404.84;2064434;28;20234;-60
2023/02/11 04:50:03;;;;;;;21.00;14.13;;;;;;;-1.87;100.00;103413.50;2065163;28;20265;-60
2023/02/11 04:51:04;;;;;;;19.30;13.73;;;;;;;-1.97;100.00;103389.13;2064041;28;20183;-60
2023/02/11 04:52:05;;;;;;;20.50;13.70;;;;;;;-1.84;100.00;103412.97;2065675;28;20254;-60
2023/02/11 04:53:05;;;;;;;20.90;13.83;;;;;;;-1.89;100.00;103423.03;2058835;28;20213;-60
2023/02/11 04:54:06;;;;;;;21.27;14.10;;;;;;;-2.01;100.00;103395.41;2063943;28;20236;-60
2023/02/11 04:55:06;;;;;;;21.10;14.23;;;;;;;-1.87;100.00;103427.09;2063595;28;20199;-60
2023/02/11 04:56:07;;;;;;;19.37;13.57;;;;;;;-1.88;100.00;103426.28;2064898;28;20620;-60
2023/02/11 04:57:07;;;;;;;21.23;14.27;;;;;;;-1.88;100.00;103419.22;2068685;28;20226;-60
2023/02/11 04:58:08;;;;;;;21.93;14.30;;;;;;;-1.88;100.00;103417.34;2066280;28;20313;-60
2023/02/11 04:59:08;;;;;;;21.07;13.77;;;;;;;-1.91;100.00;103420.59;2073623;28;20174;-60